createdAt,value
2019-01-20T00:00:37.855Z,1.43
2019-01-20T00:03:03.757Z,1.44
2019-01-20T00:05:29.787Z,1.32
2019-01-20T00:07:55.660Z,1.36
2019-01-20T00:10:21.511Z,1.27
2019-01-20T00:12:47.439Z,1.22
2019-01-20T00:15:17.876Z,1.13
2019-01-20T00:17:43.777Z,1.11
2019-01-20T00:20:09.713Z,1.10
2019-01-20T00:22:35.566Z,1.05
2019-01-20T00:25:01.514Z,0.93
2019-01-20T00:27:27.474Z,0.91
2019-01-20T00:29:53.328Z,0.86
2019-01-20T00:32:19.192Z,0.88
2019-01-20T00:34:45.098Z,0.89
2019-01-20T00:37:10.956Z,0.96
2019-01-20T00:39:36.898Z,0.92
2019-01-20T00:42:02.867Z,0.90
2019-01-20T00:44:28.768Z,0.99
2019-01-20T00:46:54.681Z,0.96
2019-01-20T00:49:20.553Z,1.02
2019-01-20T00:51:46.440Z,1.11
2019-01-20T00:54:12.999Z,1.15
2019-01-20T00:56:38.860Z,1.24
2019-01-20T00:59:04.763Z,1.23
2019-01-20T01:01:30.630Z,1.31
2019-01-20T01:03:56.762Z,1.29
2019-01-20T01:06:22.671Z,1.33
2019-01-20T01:08:48.550Z,1.35
2019-01-20T01:11:14.423Z,1.46
2019-01-20T01:13:40.283Z,1.32
2019-01-20T01:16:06.272Z,1.32
2019-01-20T01:18:32.173Z,1.40
2019-01-20T01:20:58.026Z,1.40
2019-01-20T01:23:23.928Z,1.32
2019-01-20T01:25:49.792Z,1.36
2019-01-20T01:28:15.787Z,1.52
2019-01-20T01:30:41.668Z,1.48
2019-01-20T01:33:07.554Z,1.49
2019-01-20T01:35:33.477Z,1.63
2019-01-20T01:37:59.326Z,1.64
2019-01-20T01:40:25.197Z,1.70
2019-01-20T01:42:51.142Z,1.69
2019-01-20T01:45:18.292Z,1.78
2019-01-20T01:47:44.188Z,1.74
2019-01-20T01:50:11.049Z,1.76
2019-01-20T01:52:36.949Z,1.79
2019-01-20T01:55:04.432Z,1.74
2019-01-20T01:57:30.409Z,1.85
2019-01-20T01:59:56.284Z,1.83
2019-01-20T02:02:22.148Z,1.80
2019-01-20T02:04:48.039Z,1.83
2019-01-20T02:07:13.896Z,1.92
2019-01-20T02:09:39.799Z,1.93
2019-01-20T02:12:05.776Z,1.94
2019-01-20T02:14:31.697Z,1.94
2019-01-20T02:17:00.833Z,1.96
2019-01-20T02:19:26.701Z,1.94
2019-01-20T02:21:52.599Z,1.98
2019-01-20T02:24:18.457Z,1.92
2019-01-20T02:26:44.465Z,1.96
2019-01-20T02:29:10.351Z,2.03
2019-01-20T02:31:36.215Z,2.03
2019-01-20T02:34:02.161Z,1.99
2019-01-20T02:36:28.003Z,2.03
2019-01-20T02:38:54.009Z,2.04
2019-01-20T02:41:19.879Z,1.94
2019-01-20T02:43:45.755Z,1.91
2019-01-20T02:46:11.699Z,1.85
2019-01-20T02:48:37.585Z,1.87
2019-01-20T02:51:03.507Z,1.81
2019-01-20T02:53:29.395Z,1.90
2019-01-20T02:55:55.251Z,2.03
2019-01-20T02:58:21.141Z,1.96
2019-01-20T03:00:47.024Z,1.85
2019-01-20T03:03:13.853Z,1.79
2019-01-20T03:05:39.705Z,1.79
2019-01-20T03:08:05.697Z,1.72
2019-01-20T03:10:31.902Z,1.76
2019-01-20T03:12:57.778Z,1.85
2019-01-20T03:15:23.646Z,1.92
2019-01-20T03:17:49.805Z,1.84
2019-01-20T03:20:18.118Z,1.80
2019-01-20T03:22:44.034Z,1.80
2019-01-20T03:25:12.294Z,1.82
2019-01-20T03:27:38.193Z,1.87
2019-01-20T03:30:07.909Z,1.93
2019-01-20T03:32:33.793Z,1.88
2019-01-20T03:34:59.816Z,1.86
2019-01-20T03:37:25.742Z,1.89
2019-01-20T03:39:51.655Z,1.85
2019-01-20T03:42:17.509Z,1.87
2019-01-20T03:44:43.493Z,1.86
2019-01-20T03:47:09.413Z,1.87
2019-01-20T03:49:35.289Z,1.83
2019-01-20T03:52:01.161Z,1.83
2019-01-20T03:54:27.027Z,1.78
2019-01-20T03:56:52.921Z,1.75
2019-01-20T03:59:18.818Z,1.73
2019-01-20T04:01:44.915Z,1.73
2019-01-20T04:04:10.855Z,1.69
2019-01-20T04:06:36.720Z,1.63
2019-01-20T04:09:06.174Z,1.62
2019-01-20T04:11:32.078Z,1.60
2019-01-20T04:13:57.942Z,1.45
2019-01-20T04:16:23.866Z,1.39
2019-01-20T04:18:49.771Z,1.45
2019-01-20T04:21:15.651Z,1.42
2019-01-20T04:23:41.693Z,1.48
2019-01-20T04:26:07.583Z,1.45
2019-01-20T04:28:33.442Z,1.50
2019-01-20T04:30:59.607Z,1.43
2019-01-20T04:33:25.451Z,1.36
2019-01-20T04:35:51.330Z,1.31
2019-01-20T04:38:17.258Z,1.29
2019-01-20T04:40:43.114Z,1.29
2019-01-20T04:43:08.979Z,1.25
2019-01-20T04:45:34.910Z,1.25
2019-01-20T04:48:00.824Z,1.18
2019-01-20T04:50:26.694Z,1.13
2019-01-20T04:52:52.577Z,1.14
2019-01-20T04:55:18.464Z,1.14
2019-01-20T04:57:46.263Z,1.18
2019-01-20T05:00:14.802Z,1.11
2019-01-20T05:02:40.699Z,1.07
2019-01-20T05:05:06.554Z,1.10
2019-01-20T05:07:32.478Z,1.11
2019-01-20T05:09:58.354Z,1.08
2019-01-20T05:12:24.207Z,1.08
2019-01-20T05:14:50.097Z,0.99
2019-01-20T05:17:16.192Z,1.00
2019-01-20T05:19:45.828Z,0.98
2019-01-20T05:22:11.743Z,0.96
2019-01-20T05:24:37.676Z,0.94
2019-01-20T05:27:03.609Z,0.89
2019-01-20T05:29:29.472Z,0.91
2019-01-20T05:31:55.357Z,0.89
2019-01-20T05:34:21.289Z,0.82
2019-01-20T05:36:47.168Z,0.84
2019-01-20T05:39:13.023Z,0.86
2019-01-20T05:41:38.941Z,1.05
2019-01-20T05:44:04.796Z,1.12
2019-01-20T05:46:30.710Z,0.92
2019-01-20T05:48:56.583Z,0.88
2019-01-20T05:51:22.431Z,0.78
2019-01-20T05:53:48.346Z,0.75
2019-01-20T05:56:14.186Z,0.79
2019-01-20T05:58:40.173Z,0.75
2019-01-20T06:01:06.082Z,0.60
2019-01-20T06:03:31.979Z,0.60
2019-01-20T06:05:57.886Z,0.61
2019-01-20T06:08:23.775Z,0.57
2019-01-20T06:10:49.631Z,0.49
2019-01-20T06:13:15.505Z,0.41
2019-01-20T06:15:41.541Z,0.33
2019-01-20T06:18:08.111Z,0.51
2019-01-20T06:20:34.074Z,0.47
2019-01-20T06:22:59.955Z,0.44
2019-01-20T06:25:25.842Z,0.41
2019-01-20T06:27:51.827Z,0.38
2019-01-20T06:30:25.881Z,0.43
2019-01-20T06:32:51.945Z,0.43
2019-01-20T06:35:17.795Z,0.55
2019-01-20T06:37:43.676Z,0.61
2019-01-20T06:40:09.653Z,0.55
2019-01-20T06:42:35.543Z,0.55
2019-01-20T06:45:01.751Z,0.48
2019-01-20T06:47:27.668Z,0.44
2019-01-20T06:49:53.582Z,0.43
2019-01-20T06:52:19.550Z,0.40
2019-01-20T06:54:45.424Z,0.42
2019-01-20T06:57:11.443Z,0.48
2019-01-20T06:59:37.311Z,0.43
2019-01-20T07:02:03.287Z,0.48
2019-01-20T07:04:29.216Z,0.46
2019-01-20T07:06:55.088Z,0.43
2019-01-20T07:09:20.964Z,0.43
2019-01-20T07:11:46.876Z,0.44
2019-01-20T07:14:12.738Z,0.40
2019-01-20T07:16:38.626Z,0.40
2019-01-20T07:19:04.569Z,0.31
2019-01-20T07:21:30.471Z,0.31
2019-01-20T07:23:56.358Z,0.30
2019-01-20T07:26:22.234Z,0.41
2019-01-20T07:28:48.106Z,0.28
2019-01-20T07:31:13.960Z,0.35
2019-01-20T07:33:39.893Z,0.29
2019-01-20T07:36:05.803Z,0.29
2019-01-20T07:38:31.685Z,0.38
2019-01-20T07:40:57.614Z,0.34
2019-01-20T07:43:23.504Z,0.37
2019-01-20T07:45:49.344Z,0.47
2019-01-20T07:48:15.286Z,0.37
2019-01-20T07:50:41.160Z,0.54
2019-01-20T07:53:07.083Z,0.52
2019-01-20T07:55:32.940Z,0.49
2019-01-20T07:57:58.950Z,0.66
2019-01-20T08:00:24.871Z,0.66
2019-01-20T08:02:50.786Z,0.56
2019-01-20T08:05:17.025Z,0.57
2019-01-20T08:07:43.095Z,0.61
2019-01-20T08:10:14.954Z,0.64
2019-01-20T08:12:40.938Z,0.63
2019-01-20T08:15:09.571Z,0.53
2019-01-20T08:17:35.493Z,0.57
2019-01-20T08:20:01.695Z,0.65
2019-01-20T08:22:27.809Z,0.80
2019-01-20T08:24:53.721Z,0.78
2019-01-20T08:27:19.591Z,0.86
2019-01-20T08:29:45.433Z,0.83
2019-01-20T08:32:11.378Z,0.90
2019-01-20T08:34:37.284Z,0.91
2019-01-20T08:37:04.349Z,0.94
2019-01-20T08:39:30.393Z,0.93
2019-01-20T08:41:56.384Z,0.96
2019-01-20T08:44:25.091Z,0.96
2019-01-20T08:46:52.407Z,0.97
2019-01-20T08:49:18.301Z,1.10
2019-01-20T08:51:44.244Z,1.17
2019-01-20T08:54:10.164Z,1.15
2019-01-20T08:56:36.200Z,1.21
2019-01-20T08:59:02.183Z,1.27
2019-01-20T09:01:28.083Z,1.38
2019-01-20T09:03:53.955Z,1.54
2019-01-20T09:06:20.162Z,1.60
2019-01-20T09:08:46.055Z,1.70
2019-01-20T09:11:12.267Z,1.75
2019-01-20T09:13:39.836Z,1.91
2019-01-20T09:16:06.530Z,1.92
2019-01-20T09:18:32.377Z,1.99
2019-01-20T09:20:58.321Z,2.07
2019-01-20T09:23:27.890Z,2.22
2019-01-20T09:25:53.913Z,2.30
2019-01-20T09:28:19.787Z,2.40
2019-01-20T09:30:48.893Z,2.47
2019-01-20T09:33:14.841Z,2.66
2019-01-20T09:35:40.747Z,2.87
2019-01-20T09:38:06.730Z,3.05
2019-01-20T09:40:32.616Z,3.13
2019-01-20T09:42:58.592Z,3.22
2019-01-20T09:45:27.999Z,3.44
2019-01-20T09:47:54.029Z,3.51
2019-01-20T09:50:20.013Z,3.56
2019-01-20T09:52:45.901Z,3.64
2019-01-20T09:55:12.002Z,3.74
2019-01-20T09:57:37.933Z,3.87
2019-01-20T10:00:07.752Z,3.98
2019-01-20T10:02:33.622Z,4.03
2019-01-20T10:04:59.518Z,4.15
2019-01-20T10:07:25.427Z,4.42
2019-01-20T10:09:51.371Z,4.45
2019-01-20T10:12:17.345Z,4.22
2019-01-20T10:14:43.297Z,4.18
2019-01-20T10:17:09.188Z,4.52
2019-01-20T10:19:35.071Z,4.61
2019-01-20T10:22:00.981Z,4.68
2019-01-20T10:24:26.999Z,4.69
2019-01-20T10:26:52.893Z,4.89
2019-01-20T10:29:18.892Z,4.69
2019-01-20T10:31:44.806Z,4.82
2019-01-20T10:34:10.691Z,4.69
2019-01-20T10:36:36.660Z,4.75
2019-01-20T10:39:05.418Z,4.67
2019-01-20T10:41:31.374Z,4.91
2019-01-20T10:44:02.166Z,4.91
2019-01-20T10:46:25.257Z,5.01
2019-01-20T10:48:51.138Z,5.03
2019-01-20T10:51:17.104Z,4.82
2019-01-20T10:53:43.185Z,4.66
2019-01-20T10:56:09.119Z,4.98
2019-01-20T10:58:34.978Z,4.98
2019-01-20T11:01:00.915Z,5.02
2019-01-20T11:03:26.906Z,5.52
2019-01-20T11:05:53.011Z,6.54
2019-01-20T11:08:19.069Z,9.19
2019-01-20T11:10:44.963Z,6.25
2019-01-20T11:13:10.841Z,6.50
2019-01-20T11:15:36.788Z,6.57
2019-01-20T11:18:02.785Z,6.03
2019-01-20T11:20:28.660Z,6.05
2019-01-20T11:22:54.703Z,5.77
2019-01-20T11:25:26.660Z,5.67
2019-01-20T11:27:52.523Z,5.62
2019-01-20T11:30:18.430Z,5.38
2019-01-20T11:32:44.285Z,5.65
2019-01-20T11:35:16.604Z,5.52
2019-01-20T11:37:42.549Z,5.51
2019-01-20T11:40:10.026Z,5.59
2019-01-20T11:42:35.893Z,5.71
2019-01-20T11:45:03.063Z,5.60
2019-01-20T11:47:28.963Z,5.79
2019-01-20T11:49:54.827Z,5.50
2019-01-20T11:52:20.753Z,5.94
2019-01-20T11:54:46.631Z,5.54
2019-01-20T11:57:12.495Z,5.79
2019-01-20T11:59:38.397Z,5.60
2019-01-20T12:02:04.357Z,5.31
2019-01-20T12:04:30.212Z,5.45
2019-01-20T12:06:56.089Z,6.00
2019-01-20T12:09:22.169Z,5.89
2019-01-20T12:11:48.164Z,5.95
2019-01-20T12:14:14.012Z,6.31
2019-01-20T12:16:40.096Z,5.98
2019-01-20T12:19:06.009Z,6.06
2019-01-20T12:21:31.845Z,6.25
2019-01-20T12:23:57.807Z,6.49
2019-01-20T12:26:23.760Z,6.22
2019-01-20T12:28:49.628Z,6.32
2019-01-20T12:31:15.639Z,6.27
2019-01-20T12:33:41.560Z,6.81
2019-01-20T12:36:07.465Z,6.73
2019-01-20T12:38:33.342Z,6.72
2019-01-20T12:40:59.396Z,6.38
2019-01-20T12:43:25.234Z,6.81
2019-01-20T12:45:51.124Z,6.34
2019-01-20T12:48:17.484Z,7.06
2019-01-20T12:50:43.393Z,7.34
2019-01-20T12:53:09.363Z,7.04
2019-01-20T12:55:35.205Z,6.67
2019-01-20T12:58:01.100Z,6.83
2019-01-20T13:00:27.102Z,7.26
2019-01-20T13:02:53.441Z,8.39
2019-01-20T13:05:19.382Z,7.55
2019-01-20T13:07:45.313Z,8.34
2019-01-20T13:10:13.416Z,8.53
2019-01-20T13:12:39.282Z,8.68
2019-01-20T13:15:08.255Z,9.74
2019-01-20T13:17:34.133Z,7.65
2019-01-20T13:20:00.017Z,7.79
2019-01-20T13:22:25.896Z,9.29
2019-01-20T13:24:51.817Z,11.62
2019-01-20T13:27:17.729Z,8.91
2019-01-20T13:29:43.635Z,8.74
2019-01-20T13:32:09.504Z,6.97
2019-01-20T13:34:35.425Z,7.29
2019-01-20T13:37:01.304Z,7.83
2019-01-20T13:39:27.160Z,7.54
2019-01-20T13:41:53.134Z,7.26
2019-01-20T13:44:19.085Z,7.38
2019-01-20T13:46:45.069Z,6.72
2019-01-20T13:49:11.203Z,6.76
2019-01-20T13:51:37.124Z,6.80
2019-01-20T13:54:02.982Z,6.69
2019-01-20T13:56:28.848Z,6.90
2019-01-20T13:58:54.755Z,6.74
2019-01-20T14:01:20.669Z,6.65
2019-01-20T14:03:46.557Z,6.86
2019-01-20T14:06:12.438Z,6.74
2019-01-20T14:08:44.260Z,7.12
2019-01-20T14:11:06.212Z,7.13
2019-01-20T14:13:32.096Z,7.01
2019-01-20T14:15:57.957Z,6.57
2019-01-20T14:18:23.896Z,6.75
2019-01-20T14:20:49.827Z,6.39
2019-01-20T14:23:15.757Z,6.58
2019-01-20T14:25:41.626Z,6.92
2019-01-20T14:28:11.092Z,7.14
2019-01-20T14:30:36.997Z,7.05
2019-01-20T14:33:03.329Z,6.68
2019-01-20T14:35:29.263Z,6.58
2019-01-20T14:37:57.360Z,6.87
2019-01-20T14:40:23.755Z,6.95
2019-01-20T14:42:52.440Z,7.10
2019-01-20T14:45:18.438Z,6.92
2019-01-20T14:47:44.448Z,7.61
2019-01-20T14:50:14.256Z,7.34
2019-01-20T14:52:40.129Z,7.07
2019-01-20T14:55:08.047Z,6.91
2019-01-20T14:57:33.910Z,7.14
2019-01-20T14:59:59.836Z,6.99
2019-01-20T15:02:25.721Z,6.76
2019-01-20T15:04:51.594Z,6.19
2019-01-20T15:07:18.062Z,6.05
2019-01-20T15:09:44.046Z,6.32
2019-01-20T15:12:09.941Z,6.47
2019-01-20T15:14:36.042Z,6.34
2019-01-20T15:17:01.908Z,5.89
2019-01-20T15:19:27.777Z,5.87
2019-01-20T15:21:53.736Z,5.78
2019-01-20T15:24:19.592Z,5.73
2019-01-20T15:26:45.466Z,5.53
2019-01-20T15:29:11.379Z,5.55
2019-01-20T15:31:37.249Z,5.42
2019-01-20T15:34:03.231Z,5.37
2019-01-20T15:36:29.104Z,5.37
2019-01-20T15:38:55.094Z,5.24
2019-01-20T15:41:20.970Z,5.12
2019-01-20T15:43:46.833Z,5.08
2019-01-20T15:46:12.720Z,5.02
2019-01-20T15:48:38.602Z,4.97
2019-01-20T15:51:04.472Z,4.95
2019-01-20T15:53:30.350Z,4.90
2019-01-20T15:55:56.248Z,4.84
2019-01-20T15:58:22.150Z,4.84
2019-01-20T16:00:48.049Z,4.77
2019-01-20T16:03:13.921Z,4.70
2019-01-20T16:05:39.783Z,4.59
2019-01-20T16:08:05.696Z,4.61
2019-01-20T16:10:31.625Z,4.55
2019-01-20T16:12:57.484Z,4.39
2019-01-20T16:15:31.505Z,4.44
2019-01-20T16:17:57.489Z,4.49
2019-01-20T16:20:24.324Z,4.37
2019-01-20T16:22:50.155Z,4.26
2019-01-20T16:25:18.420Z,4.27
2019-01-20T16:27:44.339Z,4.21
2019-01-20T16:30:13.548Z,4.16
2019-01-20T16:32:39.449Z,4.14
2019-01-20T16:35:08.799Z,4.04
2019-01-20T16:37:34.693Z,4.08
2019-01-20T16:40:00.586Z,4.00
2019-01-20T16:42:26.501Z,4.00
2019-01-20T16:44:52.367Z,3.96
2019-01-20T16:47:18.357Z,3.92
2019-01-20T16:49:44.343Z,3.75
2019-01-20T16:52:10.797Z,3.93
2019-01-20T16:54:36.782Z,3.89
2019-01-20T16:57:02.682Z,3.80
2019-01-20T16:59:28.556Z,3.87
2019-01-20T17:01:54.532Z,3.76
2019-01-20T17:04:20.407Z,3.80
2019-01-20T17:06:46.291Z,3.71
2019-01-20T17:09:12.175Z,3.63
2019-01-20T17:11:38.062Z,3.60
2019-01-20T17:14:04.704Z,3.55
2019-01-20T17:16:30.592Z,3.53
2019-01-20T17:18:56.452Z,3.53
2019-01-20T17:21:22.435Z,3.37
2019-01-20T17:23:48.319Z,3.30
2019-01-20T17:26:14.327Z,3.38
2019-01-20T17:28:40.222Z,3.20
2019-01-20T17:31:09.651Z,3.36
2019-01-20T17:33:35.567Z,3.28
2019-01-20T17:36:01.440Z,3.28
2019-01-20T17:38:27.317Z,3.10
2019-01-20T17:40:53.246Z,3.23
2019-01-20T17:43:19.098Z,3.20
2019-01-20T17:45:48.548Z,3.16
2019-01-20T17:48:12.830Z,3.24
2019-01-20T17:50:40.225Z,2.97
2019-01-20T17:53:07.196Z,2.76
2019-01-20T17:55:33.243Z,2.49
2019-01-20T17:57:59.133Z,2.49
2019-01-20T18:00:29.121Z,2.39
2019-01-20T18:02:55.061Z,2.36
2019-01-20T18:05:22.826Z,2.25
2019-01-20T18:07:48.706Z,2.30
2019-01-20T18:10:14.694Z,2.30
2019-01-20T18:12:40.563Z,2.26
2019-01-20T18:15:09.433Z,2.25
2019-01-20T18:17:39.158Z,2.18
2019-01-20T18:20:08.753Z,2.05
2019-01-20T18:22:34.624Z,1.94
2019-01-20T18:25:00.648Z,1.86
2019-01-20T18:27:26.506Z,1.78
2019-01-20T18:29:52.377Z,1.72
2019-01-20T18:32:18.355Z,1.72
2019-01-20T18:34:44.241Z,1.70
2019-01-20T18:37:10.117Z,1.68
2019-01-20T18:39:36.016Z,1.64
2019-01-20T18:42:01.894Z,1.66
2019-01-20T18:44:27.856Z,1.63
2019-01-20T18:46:53.732Z,1.65
2019-01-20T18:49:19.683Z,1.72
2019-01-20T18:51:45.664Z,1.66
2019-01-20T18:54:11.668Z,1.66
2019-01-20T18:56:37.562Z,1.73
2019-01-20T18:59:03.475Z,1.81
2019-01-20T19:01:29.333Z,1.72
2019-01-20T19:03:55.199Z,1.69
2019-01-20T19:06:21.151Z,1.75
2019-01-20T19:08:47.073Z,1.70
2019-01-20T19:11:12.961Z,1.63
2019-01-20T19:13:38.971Z,1.48
2019-01-20T19:16:08.903Z,1.48
2019-01-20T19:18:32.821Z,1.40
2019-01-20T19:20:58.691Z,1.36
2019-01-20T19:23:24.625Z,1.32
2019-01-20T19:25:50.496Z,1.32
2019-01-20T19:28:16.370Z,1.21
2019-01-20T19:30:42.305Z,1.13
2019-01-20T19:33:08.238Z,1.17
2019-01-20T19:35:34.120Z,1.15
2019-01-20T19:38:00.125Z,1.13
2019-01-20T19:40:26.096Z,1.19
2019-01-20T19:42:52.236Z,1.16
2019-01-20T19:45:19.449Z,1.15
2019-01-20T19:47:45.382Z,1.11
2019-01-20T19:50:13.017Z,1.21
2019-01-20T19:52:38.912Z,1.19
2019-01-20T19:55:09.334Z,1.13
2019-01-20T19:57:35.421Z,1.05
2019-01-20T20:00:01.292Z,1.16
2019-01-20T20:02:27.173Z,1.17
2019-01-20T20:04:53.130Z,1.07
2019-01-20T20:07:18.985Z,1.04
2019-01-20T20:09:45.269Z,0.94
2019-01-20T20:12:11.127Z,1.02
2019-01-20T20:14:38.028Z,0.94
2019-01-20T20:17:03.923Z,0.89
2019-01-20T20:19:29.816Z,0.89
2019-01-20T20:21:55.821Z,0.91
2019-01-20T20:24:25.528Z,0.80
2019-01-20T20:26:49.493Z,0.82
2019-01-20T20:29:15.519Z,0.80
2019-01-20T20:31:41.459Z,0.84
2019-01-20T20:34:07.353Z,0.86
2019-01-20T20:36:33.231Z,0.75
2019-01-20T20:39:02.173Z,0.85
2019-01-20T20:41:28.094Z,0.87
2019-01-20T20:43:54.138Z,0.83
2019-01-20T20:46:20.029Z,0.88
2019-01-20T20:48:45.994Z,0.89
2019-01-20T20:51:12.141Z,0.86
2019-01-20T20:53:38.035Z,0.80
2019-01-20T20:56:03.948Z,0.80
2019-01-20T20:58:30.060Z,0.78
2019-01-20T21:00:55.938Z,0.74
2019-01-20T21:03:21.868Z,0.71
2019-01-20T21:05:48.657Z,0.64
2019-01-20T21:08:14.680Z,0.60
2019-01-20T21:10:40.783Z,0.69
2019-01-20T21:13:06.725Z,0.70
2019-01-20T21:15:32.600Z,0.65
2019-01-20T21:17:58.481Z,0.68
2019-01-20T21:20:24.386Z,0.68
2019-01-20T21:22:50.249Z,0.73
2019-01-20T21:25:16.177Z,0.62
2019-01-20T21:27:42.097Z,0.55
2019-01-20T21:30:14.985Z,0.59
2019-01-20T21:32:40.937Z,0.47
2019-01-20T21:35:06.897Z,0.42
2019-01-20T21:37:32.768Z,0.45
2019-01-20T21:39:58.668Z,0.51
2019-01-20T21:42:24.523Z,0.49
2019-01-20T21:44:50.622Z,0.50
2019-01-20T21:47:16.504Z,0.48
2019-01-20T21:49:42.380Z,0.38
2019-01-20T21:52:08.326Z,0.31
2019-01-20T21:54:34.197Z,0.26
2019-01-20T21:57:00.051Z,0.24
2019-01-20T21:59:25.957Z,0.36
2019-01-20T22:01:51.850Z,0.40
2019-01-20T22:04:17.725Z,0.43
2019-01-20T22:06:43.592Z,0.47
2019-01-20T22:09:09.474Z,0.45
2019-01-20T22:11:35.622Z,0.40
2019-01-20T22:14:01.644Z,0.40
2019-01-20T22:16:27.522Z,0.45
2019-01-20T22:18:53.431Z,0.43
2019-01-20T22:21:19.317Z,0.44
2019-01-20T22:23:45.229Z,0.28
2019-01-20T22:26:11.137Z,0.25
2019-01-20T22:28:37.004Z,0.28
2019-01-20T22:31:02.884Z,0.26
2019-01-20T22:33:28.773Z,0.29
2019-01-20T22:35:54.659Z,0.19
2019-01-20T22:38:20.595Z,0.19
2019-01-20T22:40:46.522Z,0.27
2019-01-20T22:43:12.342Z,0.26
2019-01-20T22:45:38.269Z,0.27
2019-01-20T22:48:04.231Z,0.21
2019-01-20T22:50:30.177Z,0.21
2019-01-20T22:52:56.513Z,0.29
2019-01-20T22:55:22.547Z,0.34
2019-01-20T22:57:48.381Z,0.34
2019-01-20T23:00:20.345Z,0.36
2019-01-20T23:02:46.600Z,0.34
2019-01-20T23:05:12.686Z,0.30
2019-01-20T23:07:38.582Z,0.27
2019-01-20T23:10:05.360Z,0.22
2019-01-20T23:12:31.235Z,0.16
2019-01-20T23:14:57.125Z,0.07
2019-01-20T23:17:23.067Z,0.12
2019-01-20T23:19:48.945Z,0.10
2019-01-20T23:22:14.832Z,0.17
2019-01-20T23:24:40.751Z,0.22
2019-01-20T23:27:06.742Z,0.14
2019-01-20T23:29:32.617Z,0.16
2019-01-20T23:31:58.532Z,0.19
2019-01-20T23:34:24.422Z,0.12
2019-01-20T23:36:54.068Z,0.17
2019-01-20T23:39:19.947Z,0.13
2019-01-20T23:41:45.805Z,0.17
2019-01-20T23:44:11.946Z,0.08
2019-01-20T23:46:37.879Z,0.09
2019-01-20T23:49:03.727Z,0.09
2019-01-20T23:51:29.628Z,0.09
2019-01-20T23:53:55.495Z,0.07
2019-01-20T23:56:21.437Z,0.07
2019-01-20T23:58:47.388Z,0.11
